DEDAF EDWI-EDXH
Flight info
| Callsign | DEDAF |
|---|---|
| Flight time | 0h 25m |
| Altitude | 8000 |
| Route | NOSNO WI160 WI215 DHE |
| Aircraft | BT36/L-BDFGLORY/S |
Departure
| Time | 2026-05-04 19:33 |
|---|---|
| Airport | JadeWeser Airport (EDWI) |
Arrival
| Time | 2026-05-04 19:58 |
|---|---|
| Airport | Helgoland-Düne Airport (EDXH) |
| Time | Latitude | Longitude | Altitude | Speed | Heading |
|---|---|---|---|---|---|
| 2026-05-04 19:28 | 53.50660 | 8.05253 | 23 ft | 0 kts | 177° |
| 2026-05-04 19:31 | 53.50651 | 8.05138 | 25 ft | 10 kts | 262° |
| 2026-05-04 19:31 | 53.50587 | 8.05052 | 25 ft | 21 kts | 192° |
| 2026-05-04 19:32 | 53.50453 | 8.05015 | 25 ft | 24 kts | 185° |
| 2026-05-04 19:32 | 53.50286 | 8.04989 | 25 ft | 27 kts | 185° |
| 2026-05-04 19:32 | 53.50053 | 8.04949 | 25 ft | 25 kts | 186° |
| 2026-05-04 19:32 | 53.49982 | 8.05018 | 25 ft | 9 kts | 109° |
| 2026-05-04 19:33 | 53.50080 | 8.05130 | 25 ft | 49 kts | 22° |
| 2026-05-04 19:33 | 53.50610 | 8.05481 | 279 ft | 99 kts | 22° |
| 2026-05-04 19:33 | 53.51329 | 8.05939 | 777 ft | 122 kts | 21° |
| 2026-05-04 19:33 | 53.52169 | 8.06493 | 1294 ft | 136 kts | 19° |
| 2026-05-04 19:34 | 53.53063 | 8.07095 | 1812 ft | 141 kts | 19° |
| 2026-05-04 19:34 | 53.53992 | 8.07726 | 2317 ft | 146 kts | 18° |
| 2026-05-04 19:34 | 53.55001 | 8.08412 | 2507 ft | 170 kts | 18° |
| 2026-05-04 19:34 | 53.56160 | 8.09210 | 2514 ft | 186 kts | 20° |
| 2026-05-04 19:35 | 53.57387 | 8.10063 | 2520 ft | 194 kts | 20° |
| 2026-05-04 19:35 | 53.58648 | 8.10931 | 2508 ft | 196 kts | 19° |
| 2026-05-04 19:35 | 53.59873 | 8.10790 | 2330 ft | 196 kts | 303° |
| 2026-05-04 19:35 | 53.59622 | 8.08612 | 1726 ft | 221 kts | 222° |
| 2026-05-04 19:36 | 53.58181 | 8.07885 | 1581 ft | 218 kts | 187° |
| 2026-05-04 19:36 | 53.56675 | 8.07723 | 1439 ft | 215 kts | 183° |
| 2026-05-04 19:36 | 53.55192 | 8.07654 | 1336 ft | 212 kts | 181° |
| 2026-05-04 19:36 | 53.53738 | 8.07460 | 1052 ft | 198 kts | 190° |
| 2026-05-04 19:37 | 53.52623 | 8.06874 | 662 ft | 129 kts | 201° |
| 2026-05-04 19:37 | 53.51910 | 8.06398 | 423 ft | 95 kts | 201° |
| 2026-05-04 19:37 | 53.51264 | 8.05953 | 246 ft | 107 kts | 204° |
| 2026-05-04 19:37 | 53.50627 | 8.05503 | 53 ft | 88 kts | 202° |
| 2026-05-04 19:38 | 53.50189 | 8.05213 | 24 ft | 34 kts | 201° |
| 2026-05-04 19:38 | 53.50130 | 8.05173 | 24 ft | 0 kts | 204° |
| 2026-05-04 19:39 | 53.50019 | 8.05090 | 23 ft | 30 kts | 202° |
| 2026-05-04 19:39 | 53.49990 | 8.05072 | 23 ft | 11 kts | 19° |
| 2026-05-04 19:40 | 53.50330 | 8.05298 | 57 ft | 85 kts | 21° |
| 2026-05-04 19:40 | 53.50967 | 8.05728 | 353 ft | 119 kts | 22° |
| 2026-05-04 19:40 | 53.51842 | 8.06287 | 644 ft | 146 kts | 21° |
| 2026-05-04 19:40 | 53.52816 | 8.06933 | 964 ft | 155 kts | 21° |
| 2026-05-04 19:41 | 53.53834 | 8.07622 | 1281 ft | 160 kts | 20° |
| 2026-05-04 19:41 | 53.54880 | 8.08336 | 1595 ft | 165 kts | 20° |
| 2026-05-04 19:41 | 53.55945 | 8.09067 | 1908 ft | 166 kts | 20° |
| 2026-05-04 19:41 | 53.57024 | 8.09809 | 2212 ft | 169 kts | 19° |
| 2026-05-04 19:42 | 53.58126 | 8.10568 | 2486 ft | 175 kts | 20° |
| 2026-05-04 19:42 | 53.59275 | 8.11363 | 2505 ft | 181 kts | 20° |
| 2026-05-04 19:42 | 53.60445 | 8.12176 | 2506 ft | 182 kts | 18° |
| 2026-05-04 19:42 | 53.61629 | 8.12980 | 2503 ft | 184 kts | 18° |
| 2026-05-04 19:43 | 53.62817 | 8.13786 | 2508 ft | 185 kts | 19° |
| 2026-05-04 19:43 | 53.64016 | 8.14575 | 2507 ft | 184 kts | 14° |
| 2026-05-04 19:43 | 53.65273 | 8.14705 | 2501 ft | 181 kts | 349° |
| 2026-05-04 19:43 | 53.66487 | 8.14191 | 2503 ft | 179 kts | 342° |
| 2026-05-04 19:44 | 53.67695 | 8.13665 | 2499 ft | 179 kts | 343° |
| 2026-05-04 19:44 | 53.68886 | 8.13145 | 2505 ft | 179 kts | 342° |
| 2026-05-04 19:44 | 53.70088 | 8.12614 | 2502 ft | 179 kts | 343° |
| 2026-05-04 19:44 | 53.71299 | 8.12081 | 2506 ft | 180 kts | 343° |
| 2026-05-04 19:45 | 53.72519 | 8.11547 | 2509 ft | 181 kts | 342° |
| 2026-05-04 19:45 | 53.73736 | 8.11011 | 2508 ft | 180 kts | 342° |
| 2026-05-04 19:45 | 53.74946 | 8.10476 | 2508 ft | 179 kts | 342° |
| 2026-05-04 19:45 | 53.76151 | 8.09946 | 2507 ft | 179 kts | 342° |
| 2026-05-04 19:46 | 53.77355 | 8.09416 | 2510 ft | 178 kts | 343° |
| 2026-05-04 19:46 | 53.78552 | 8.08888 | 2510 ft | 178 kts | 343° |
| 2026-05-04 19:46 | 53.79756 | 8.08356 | 2507 ft | 179 kts | 343° |
| 2026-05-04 19:46 | 53.80960 | 8.07825 | 2508 ft | 179 kts | 343° |
| 2026-05-04 19:47 | 53.82155 | 8.07300 | 2511 ft | 175 kts | 343° |
| 2026-05-04 19:47 | 53.83313 | 8.06792 | 2509 ft | 170 kts | 342° |
| 2026-05-04 19:47 | 53.84454 | 8.06286 | 2505 ft | 169 kts | 343° |
| 2026-05-04 19:47 | 53.85589 | 8.05784 | 2502 ft | 169 kts | 342° |
| 2026-05-04 19:48 | 53.86724 | 8.05282 | 2501 ft | 169 kts | 343° |
| 2026-05-04 19:48 | 53.87862 | 8.04781 | 2503 ft | 169 kts | 342° |
| 2026-05-04 19:48 | 53.88991 | 8.04278 | 2504 ft | 167 kts | 343° |
| 2026-05-04 19:48 | 53.90113 | 8.03780 | 2505 ft | 167 kts | 342° |
| 2026-05-04 19:49 | 53.91237 | 8.03284 | 2503 ft | 167 kts | 342° |
| 2026-05-04 19:49 | 53.92364 | 8.02782 | 2503 ft | 167 kts | 343° |
| 2026-05-04 19:49 | 53.93487 | 8.02283 | 2504 ft | 167 kts | 343° |
| 2026-05-04 19:49 | 53.94615 | 8.01783 | 2502 ft | 167 kts | 342° |
| 2026-05-04 19:50 | 53.95741 | 8.01281 | 2503 ft | 167 kts | 342° |
| 2026-05-04 19:50 | 53.96866 | 8.00779 | 2509 ft | 167 kts | 342° |
| 2026-05-04 19:50 | 53.97991 | 8.00282 | 2512 ft | 167 kts | 342° |
| 2026-05-04 19:50 | 53.99109 | 7.99784 | 2514 ft | 166 kts | 342° |
| 2026-05-04 19:51 | 54.00225 | 7.99283 | 2514 ft | 166 kts | 342° |
| 2026-05-04 19:51 | 54.01342 | 7.98783 | 2514 ft | 167 kts | 342° |
| 2026-05-04 19:51 | 54.02467 | 7.98286 | 2514 ft | 167 kts | 342° |
| 2026-05-04 19:51 | 54.03595 | 7.97781 | 2515 ft | 168 kts | 342° |
| 2026-05-04 19:52 | 54.04723 | 7.97277 | 2515 ft | 167 kts | 342° |
| 2026-05-04 19:52 | 54.05842 | 7.96777 | 2515 ft | 166 kts | 342° |
| 2026-05-04 19:52 | 54.06961 | 7.96277 | 2514 ft | 166 kts | 342° |
| 2026-05-04 19:52 | 54.08011 | 7.95630 | 2501 ft | 146 kts | 322° |
| 2026-05-04 19:53 | 54.08499 | 7.94284 | 2202 ft | 137 kts | 288° |
| 2026-05-04 19:53 | 54.08904 | 7.92814 | 1880 ft | 140 kts | 302° |
| 2026-05-04 19:53 | 54.09410 | 7.91382 | 1567 ft | 142 kts | 304° |
| 2026-05-04 19:53 | 54.09941 | 7.89931 | 1249 ft | 143 kts | 305° |
| 2026-05-04 19:54 | 54.10467 | 7.88502 | 941 ft | 144 kts | 305° |
| 2026-05-04 19:54 | 54.10988 | 7.87101 | 821 ft | 133 kts | 305° |
| 2026-05-04 19:54 | 54.11458 | 7.85832 | 811 ft | 121 kts | 306° |
| 2026-05-04 19:54 | 54.11896 | 7.84647 | 810 ft | 116 kts | 306° |
| 2026-05-04 19:55 | 54.12324 | 7.83500 | 813 ft | 113 kts | 305° |
| 2026-05-04 19:55 | 54.12746 | 7.82364 | 815 ft | 115 kts | 305° |
| 2026-05-04 19:55 | 54.13357 | 7.81517 | 815 ft | 117 kts | 343° |
| 2026-05-04 19:55 | 54.14163 | 7.81526 | 820 ft | 119 kts | 18° |
| 2026-05-04 19:56 | 54.14807 | 7.82421 | 826 ft | 124 kts | 50° |
| 2026-05-04 19:56 | 54.15303 | 7.83624 | 832 ft | 124 kts | 50° |
| 2026-05-04 19:56 | 54.15810 | 7.84816 | 832 ft | 124 kts | 50° |
| 2026-05-04 19:56 | 54.16321 | 7.86022 | 762 ft | 128 kts | 50° |
| 2026-05-04 19:57 | 54.16842 | 7.87256 | 609 ft | 120 kts | 50° |
| 2026-05-04 19:57 | 54.17234 | 7.88195 | 454 ft | 78 kts | 47° |
| 2026-05-04 19:57 | 54.17542 | 7.88904 | 298 ft | 72 kts | 49° |
| 2026-05-04 19:57 | 54.17828 | 7.89563 | 233 ft | 68 kts | 48° |
| 2026-05-04 19:58 | 54.18105 | 7.90220 | 169 ft | 68 kts | 47° |
| 2026-05-04 19:58 | 54.18356 | 7.90830 | 65 ft | 60 kts | 48° |
| 2026-05-04 19:58 | 54.18589 | 7.91376 | 4 ft | 48 kts | 52° |
| 2026-05-04 19:58 | 54.18665 | 7.91505 | 4 ft | 6 kts | 312° |
| 2026-05-04 19:59 | 54.18671 | 7.91493 | 4 ft | 0 kts | 302° |